sensor_id;sensor_type;location;lat;lon;timestamp;P1;durP1;ratioP1;P2;durP2;ratioP2
15708;SDS011;7954;51.914;8.420;2023-08-17T00:02:22;5.23;;;2.43;;
15708;SDS011;7954;51.914;8.420;2023-08-17T00:04:49;7.93;;;2.40;;
15708;SDS011;7954;51.914;8.420;2023-08-17T00:07:17;3.23;;;2.00;;
15708;SDS011;7954;51.914;8.420;2023-08-17T00:09:45;2.50;;;1.83;;
15708;SDS011;7954;51.914;8.420;2023-08-17T00:12:16;5.43;;;2.43;;
15708;SDS011;7954;51.914;8.420;2023-08-17T00:14:43;3.13;;;1.83;;
15708;SDS011;7954;51.914;8.420;2023-08-17T00:17:11;3.53;;;1.80;;
15708;SDS011;7954;51.914;8.420;2023-08-17T00:19:39;5.43;;;1.97;;
15708;SDS011;7954;51.914;8.420;2023-08-17T00:22:06;2.97;;;1.70;;
15708;SDS011;7954;51.914;8.420;2023-08-17T00:24:34;4.83;;;1.80;;
15708;SDS011;7954;51.914;8.420;2023-08-17T00:27:03;2.83;;;1.70;;
15708;SDS011;7954;51.914;8.420;2023-08-17T00:29:33;3.10;;;1.70;;
15708;SDS011;7954;51.914;8.420;2023-08-17T00:32:01;3.80;;;1.77;;
15708;SDS011;7954;51.914;8.420;2023-08-17T00:34:29;3.40;;;1.97;;
15708;SDS011;7954;51.914;8.420;2023-08-17T00:36:57;2.60;;;1.73;;
15708;SDS011;7954;51.914;8.420;2023-08-17T00:39:25;3.00;;;1.40;;
15708;SDS011;7954;51.914;8.420;2023-08-17T00:41:53;3.17;;;1.80;;
15708;SDS011;7954;51.914;8.420;2023-08-17T00:44:21;3.50;;;1.80;;
15708;SDS011;7954;51.914;8.420;2023-08-17T00:46:50;2.50;;;1.77;;
15708;SDS011;7954;51.914;8.420;2023-08-17T00:49:18;1.77;;;1.60;;
15708;SDS011;7954;51.914;8.420;2023-08-17T00:51:46;3.70;;;2.00;;
15708;SDS011;7954;51.914;8.420;2023-08-17T00:54:14;4.63;;;2.00;;
15708;SDS011;7954;51.914;8.420;2023-08-17T00:56:45;2.53;;;1.90;;
15708;SDS011;7954;51.914;8.420;2023-08-17T00:59:14;3.27;;;1.90;;
15708;SDS011;7954;51.914;8.420;2023-08-17T01:01:42;4.57;;;2.20;;
15708;SDS011;7954;51.914;8.420;2023-08-17T01:04:11;2.37;;;1.83;;
15708;SDS011;7954;51.914;8.420;2023-08-17T01:06:39;2.50;;;1.80;;
15708;SDS011;7954;51.914;8.420;2023-08-17T01:09:07;4.60;;;1.73;;
15708;SDS011;7954;51.914;8.420;2023-08-17T01:11:36;4.33;;;2.00;;
15708;SDS011;7954;51.914;8.420;2023-08-17T01:14:07;2.70;;;2.13;;
15708;SDS011;7954;51.914;8.420;2023-08-17T01:16:38;5.83;;;2.10;;
15708;SDS011;7954;51.914;8.420;2023-08-17T01:19:08;5.60;;;2.20;;
15708;SDS011;7954;51.914;8.420;2023-08-17T01:21:38;3.10;;;2.30;;
15708;SDS011;7954;51.914;8.420;2023-08-17T01:24:11;3.13;;;2.33;;
15708;SDS011;7954;51.914;8.420;2023-08-17T01:26:39;5.13;;;2.20;;
15708;SDS011;7954;51.914;8.420;2023-08-17T01:29:07;4.40;;;1.93;;
15708;SDS011;7954;51.914;8.420;2023-08-17T01:31:36;2.83;;;2.40;;
15708;SDS011;7954;51.914;8.420;2023-08-17T01:34:06;4.10;;;1.80;;
15708;SDS011;7954;51.914;8.420;2023-08-17T01:36:37;2.90;;;2.20;;
15708;SDS011;7954;51.914;8.420;2023-08-17T01:39:07;3.00;;;1.90;;
15708;SDS011;7954;51.914;8.420;2023-08-17T01:41:36;2.43;;;1.70;;
15708;SDS011;7954;51.914;8.420;2023-08-17T01:44:04;4.43;;;2.30;;
15708;SDS011;7954;51.914;8.420;2023-08-17T01:46:33;3.23;;;2.20;;
15708;SDS011;7954;51.914;8.420;2023-08-17T01:49:01;6.00;;;2.60;;
15708;SDS011;7954;51.914;8.420;2023-08-17T01:51:28;3.60;;;2.30;;
15708;SDS011;7954;51.914;8.420;2023-08-17T01:53:56;5.80;;;2.40;;
15708;SDS011;7954;51.914;8.420;2023-08-17T01:56:24;4.17;;;2.40;;
15708;SDS011;7954;51.914;8.420;2023-08-17T01:58:54;7.13;;;2.87;;
15708;SDS011;7954;51.914;8.420;2023-08-17T02:01:21;8.70;;;2.43;;
15708;SDS011;7954;51.914;8.420;2023-08-17T02:03:49;3.33;;;2.27;;
15708;SDS011;7954;51.914;8.420;2023-08-17T02:06:17;4.77;;;2.43;;
15708;SDS011;7954;51.914;8.420;2023-08-17T02:08:45;3.23;;;2.67;;
15708;SDS011;7954;51.914;8.420;2023-08-17T02:11:12;6.40;;;2.73;;
15708;SDS011;7954;51.914;8.420;2023-08-17T02:13:40;3.07;;;2.17;;
15708;SDS011;7954;51.914;8.420;2023-08-17T02:16:09;3.30;;;2.50;;
15708;SDS011;7954;51.914;8.420;2023-08-17T02:18:37;3.20;;;2.40;;
15708;SDS011;7954;51.914;8.420;2023-08-17T02:21:05;3.80;;;2.40;;
15708;SDS011;7954;51.914;8.420;2023-08-17T02:23:33;2.83;;;2.33;;
15708;SDS011;7954;51.914;8.420;2023-08-17T02:26:01;4.27;;;3.07;;
15708;SDS011;7954;51.914;8.420;2023-08-17T02:28:29;4.53;;;2.87;;
15708;SDS011;7954;51.914;8.420;2023-08-17T02:30:58;3.50;;;2.63;;
15708;SDS011;7954;51.914;8.420;2023-08-17T02:33:29;3.13;;;2.60;;
15708;SDS011;7954;51.914;8.420;2023-08-17T02:35:57;3.17;;;2.53;;
15708;SDS011;7954;51.914;8.420;2023-08-17T02:38:24;4.90;;;2.40;;
15708;SDS011;7954;51.914;8.420;2023-08-17T02:40:52;3.33;;;2.40;;
15708;SDS011;7954;51.914;8.420;2023-08-17T02:43:20;3.23;;;2.70;;
15708;SDS011;7954;51.914;8.420;2023-08-17T02:45:48;4.47;;;3.00;;
15708;SDS011;7954;51.914;8.420;2023-08-17T02:48:15;3.20;;;2.90;;
15708;SDS011;7954;51.914;8.420;2023-08-17T02:50:45;3.20;;;2.90;;
15708;SDS011;7954;51.914;8.420;2023-08-17T02:53:12;3.17;;;2.53;;
15708;SDS011;7954;51.914;8.420;2023-08-17T02:55:40;3.07;;;2.70;;
15708;SDS011;7954;51.914;8.420;2023-08-17T02:58:07;2.63;;;2.43;;
15708;SDS011;7954;51.914;8.420;2023-08-17T03:00:36;5.73;;;2.63;;
15708;SDS011;7954;51.914;8.420;2023-08-17T03:03:04;4.03;;;2.77;;
15708;SDS011;7954;51.914;8.420;2023-08-17T03:05:33;3.47;;;2.57;;
15708;SDS011;7954;51.914;8.420;2023-08-17T03:08:02;2.97;;;2.17;;
15708;SDS011;7954;51.914;8.420;2023-08-17T03:10:31;2.63;;;1.90;;
15708;SDS011;7954;51.914;8.420;2023-08-17T03:12:59;3.03;;;2.17;;
15708;SDS011;7954;51.914;8.420;2023-08-17T03:15:27;2.43;;;2.20;;
15708;SDS011;7954;51.914;8.420;2023-08-17T03:17:55;2.60;;;2.40;;
15708;SDS011;7954;51.914;8.420;2023-08-17T03:20:23;5.17;;;2.40;;
15708;SDS011;7954;51.914;8.420;2023-08-17T03:22:51;3.93;;;2.80;;
15708;SDS011;7954;51.914;8.420;2023-08-17T03:25:20;3.33;;;2.70;;
15708;SDS011;7954;51.914;8.420;2023-08-17T03:27:48;3.07;;;2.63;;
15708;SDS011;7954;51.914;8.420;2023-08-17T03:30:15;3.83;;;2.70;;
15708;SDS011;7954;51.914;8.420;2023-08-17T03:32:44;2.73;;;2.50;;
15708;SDS011;7954;51.914;8.420;2023-08-17T03:35:12;3.60;;;2.87;;
15708;SDS011;7954;51.914;8.420;2023-08-17T03:37:40;3.77;;;2.80;;
15708;SDS011;7954;51.914;8.420;2023-08-17T03:40:08;3.13;;;2.83;;
15708;SDS011;7954;51.914;8.420;2023-08-17T03:42:37;3.17;;;2.53;;
15708;SDS011;7954;51.914;8.420;2023-08-17T03:45:06;2.90;;;2.43;;
15708;SDS011;7954;51.914;8.420;2023-08-17T03:47:34;4.20;;;2.40;;
15708;SDS011;7954;51.914;8.420;2023-08-17T03:50:02;3.20;;;2.80;;
15708;SDS011;7954;51.914;8.420;2023-08-17T03:52:30;2.63;;;2.43;;
15708;SDS011;7954;51.914;8.420;2023-08-17T03:54:58;2.60;;;2.40;;
15708;SDS011;7954;51.914;8.420;2023-08-17T03:57:25;2.97;;;2.43;;
15708;SDS011;7954;51.914;8.420;2023-08-17T03:59:55;3.23;;;2.80;;
15708;SDS011;7954;51.914;8.420;2023-08-17T04:02:23;4.57;;;2.83;;
15708;SDS011;7954;51.914;8.420;2023-08-17T04:04:51;3.07;;;2.70;;
15708;SDS011;7954;51.914;8.420;2023-08-17T04:07:22;3.73;;;2.40;;
15708;SDS011;7954;51.914;8.420;2023-08-17T04:09:50;2.73;;;2.50;;
15708;SDS011;7954;51.914;8.420;2023-08-17T04:12:18;3.40;;;2.23;;
15708;SDS011;7954;51.914;8.420;2023-08-17T04:14:46;3.83;;;2.87;;
15708;SDS011;7954;51.914;8.420;2023-08-17T04:17:15;2.77;;;2.40;;
15708;SDS011;7954;51.914;8.420;2023-08-17T04:19:43;3.07;;;2.70;;
15708;SDS011;7954;51.914;8.420;2023-08-17T04:22:11;3.23;;;2.57;;
15708;SDS011;7954;51.914;8.420;2023-08-17T04:24:39;3.80;;;3.23;;
15708;SDS011;7954;51.914;8.420;2023-08-17T04:27:07;2.70;;;2.50;;
15708;SDS011;7954;51.914;8.420;2023-08-17T04:29:35;3.07;;;2.77;;
15708;SDS011;7954;51.914;8.420;2023-08-17T04:32:05;2.83;;;2.63;;
15708;SDS011;7954;51.914;8.420;2023-08-17T04:34:35;2.97;;;2.67;;
15708;SDS011;7954;51.914;8.420;2023-08-17T04:37:02;3.00;;;2.77;;
15708;SDS011;7954;51.914;8.420;2023-08-17T04:39:31;6.67;;;3.20;;
15708;SDS011;7954;51.914;8.420;2023-08-17T04:41:59;3.07;;;2.70;;
15708;SDS011;7954;51.914;8.420;2023-08-17T04:44:27;3.87;;;2.70;;
15708;SDS011;7954;51.914;8.420;2023-08-17T04:46:55;4.80;;;2.83;;
15708;SDS011;7954;51.914;8.420;2023-08-17T04:49:23;2.80;;;2.60;;
15708;SDS011;7954;51.914;8.420;2023-08-17T04:51:52;3.27;;;2.50;;
15708;SDS011;7954;51.914;8.420;2023-08-17T04:54:20;2.93;;;2.60;;
15708;SDS011;7954;51.914;8.420;2023-08-17T04:56:48;4.80;;;3.17;;
15708;SDS011;7954;51.914;8.420;2023-08-17T04:59:16;3.63;;;3.30;;
15708;SDS011;7954;51.914;8.420;2023-08-17T05:01:43;3.97;;;3.40;;
15708;SDS011;7954;51.914;8.420;2023-08-17T05:04:11;3.53;;;3.23;;
15708;SDS011;7954;51.914;8.420;2023-08-17T05:06:39;6.13;;;3.33;;
15708;SDS011;7954;51.914;8.420;2023-08-17T05:09:08;5.23;;;3.33;;
15708;SDS011;7954;51.914;8.420;2023-08-17T05:11:37;3.00;;;2.50;;
15708;SDS011;7954;51.914;8.420;2023-08-17T05:14:05;4.10;;;2.60;;
15708;SDS011;7954;51.914;8.420;2023-08-17T05:16:33;3.13;;;2.57;;
15708;SDS011;7954;51.914;8.420;2023-08-17T05:19:00;3.67;;;2.87;;
15708;SDS011;7954;51.914;8.420;2023-08-17T05:21:28;2.77;;;2.40;;
15708;SDS011;7954;51.914;8.420;2023-08-17T05:23:56;4.20;;;2.67;;
15708;SDS011;7954;51.914;8.420;2023-08-17T05:26:26;2.17;;;1.97;;
15708;SDS011;7954;51.914;8.420;2023-08-17T05:28:54;3.00;;;2.40;;
15708;SDS011;7954;51.914;8.420;2023-08-17T05:31:22;2.60;;;2.27;;
15708;SDS011;7954;51.914;8.420;2023-08-17T05:33:49;4.40;;;2.60;;
15708;SDS011;7954;51.914;8.420;2023-08-17T05:36:18;3.63;;;2.43;;
15708;SDS011;7954;51.914;8.420;2023-08-17T05:38:45;7.60;;;3.60;;
15708;SDS011;7954;51.914;8.420;2023-08-17T05:41:13;4.80;;;2.30;;
15708;SDS011;7954;51.914;8.420;2023-08-17T05:43:44;5.47;;;2.57;;
15708;SDS011;7954;51.914;8.420;2023-08-17T05:46:12;3.27;;;2.00;;
15708;SDS011;7954;51.914;8.420;2023-08-17T05:48:40;4.17;;;2.37;;
15708;SDS011;7954;51.914;8.420;2023-08-17T05:51:08;4.03;;;2.40;;
15708;SDS011;7954;51.914;8.420;2023-08-17T05:53:36;3.87;;;2.43;;
15708;SDS011;7954;51.914;8.420;2023-08-17T05:56:03;7.63;;;2.53;;
15708;SDS011;7954;51.914;8.420;2023-08-17T05:58:32;4.37;;;2.60;;
15708;SDS011;7954;51.914;8.420;2023-08-17T06:01:08;4.90;;;2.23;;
15708;SDS011;7954;51.914;8.420;2023-08-17T06:03:36;3.63;;;2.33;;
15708;SDS011;7954;51.914;8.420;2023-08-17T06:06:04;7.17;;;2.70;;
15708;SDS011;7954;51.914;8.420;2023-08-17T06:08:32;3.77;;;2.80;;
15708;SDS011;7954;51.914;8.420;2023-08-17T06:11:00;5.37;;;2.73;;
15708;SDS011;7954;51.914;8.420;2023-08-17T06:13:29;4.63;;;2.70;;
15708;SDS011;7954;51.914;8.420;2023-08-17T06:15:56;4.67;;;2.97;;
15708;SDS011;7954;51.914;8.420;2023-08-17T06:18:26;4.47;;;3.27;;
15708;SDS011;7954;51.914;8.420;2023-08-17T06:20:53;4.00;;;3.13;;
15708;SDS011;7954;51.914;8.420;2023-08-17T06:23:22;6.30;;;3.40;;
15708;SDS011;7954;51.914;8.420;2023-08-17T06:25:50;4.63;;;3.53;;
15708;SDS011;7954;51.914;8.420;2023-08-17T06:28:17;3.90;;;3.17;;
15708;SDS011;7954;51.914;8.420;2023-08-17T06:30:46;4.43;;;3.20;;
15708;SDS011;7954;51.914;8.420;2023-08-17T06:33:14;3.50;;;3.20;;
15708;SDS011;7954;51.914;8.420;2023-08-17T06:35:43;3.93;;;3.37;;
15708;SDS011;7954;51.914;8.420;2023-08-17T06:38:11;4.67;;;3.33;;
15708;SDS011;7954;51.914;8.420;2023-08-17T06:40:39;5.23;;;3.40;;
15708;SDS011;7954;51.914;8.420;2023-08-17T06:43:06;4.17;;;3.20;;
15708;SDS011;7954;51.914;8.420;2023-08-17T06:45:34;6.87;;;3.60;;
15708;SDS011;7954;51.914;8.420;2023-08-17T06:48:02;4.27;;;3.30;;
15708;SDS011;7954;51.914;8.420;2023-08-17T06:50:30;5.03;;;3.63;;
15708;SDS011;7954;51.914;8.420;2023-08-17T06:53:00;5.73;;;3.67;;
15708;SDS011;7954;51.914;8.420;2023-08-17T06:55:27;5.00;;;3.70;;
15708;SDS011;7954;51.914;8.420;2023-08-17T06:57:56;4.10;;;3.70;;
15708;SDS011;7954;51.914;8.420;2023-08-17T07:00:24;4.20;;;3.77;;
15708;SDS011;7954;51.914;8.420;2023-08-17T07:02:52;6.00;;;3.80;;
15708;SDS011;7954;51.914;8.420;2023-08-17T07:05:24;3.67;;;3.37;;
15708;SDS011;7954;51.914;8.420;2023-08-17T07:07:52;5.13;;;3.40;;
15708;SDS011;7954;51.914;8.420;2023-08-17T07:10:23;5.40;;;3.90;;
15708;SDS011;7954;51.914;8.420;2023-08-17T07:12:51;4.27;;;3.70;;
15708;SDS011;7954;51.914;8.420;2023-08-17T07:15:19;5.27;;;3.53;;
15708;SDS011;7954;51.914;8.420;2023-08-17T07:17:47;3.73;;;3.30;;
15708;SDS011;7954;51.914;8.420;2023-08-17T07:20:14;4.80;;;3.83;;
15708;SDS011;7954;51.914;8.420;2023-08-17T07:22:43;5.53;;;4.50;;
15708;SDS011;7954;51.914;8.420;2023-08-17T07:25:10;6.33;;;3.60;;
15708;SDS011;7954;51.914;8.420;2023-08-17T07:27:41;4.27;;;3.70;;
15708;SDS011;7954;51.914;8.420;2023-08-17T07:30:09;4.10;;;3.63;;
15708;SDS011;7954;51.914;8.420;2023-08-17T07:32:38;5.60;;;4.60;;
15708;SDS011;7954;51.914;8.420;2023-08-17T07:35:07;7.60;;;4.30;;
15708;SDS011;7954;51.914;8.420;2023-08-17T07:37:35;5.03;;;3.83;;
15708;SDS011;7954;51.914;8.420;2023-08-17T07:40:03;4.53;;;3.83;;
15708;SDS011;7954;51.914;8.420;2023-08-17T07:42:31;4.60;;;4.20;;
15708;SDS011;7954;51.914;8.420;2023-08-17T07:45:01;5.47;;;4.17;;
15708;SDS011;7954;51.914;8.420;2023-08-17T07:47:33;4.83;;;3.73;;
15708;SDS011;7954;51.914;8.420;2023-08-17T07:50:02;4.53;;;3.77;;
15708;SDS011;7954;51.914;8.420;2023-08-17T07:52:30;4.33;;;3.93;;
15708;SDS011;7954;51.914;8.420;2023-08-17T07:54:58;5.03;;;3.90;;
15708;SDS011;7954;51.914;8.420;2023-08-17T07:57:26;5.97;;;4.33;;
15708;SDS011;7954;51.914;8.420;2023-08-17T07:59:54;6.90;;;4.40;;
15708;SDS011;7954;51.914;8.420;2023-08-17T08:02:23;5.00;;;4.00;;
15708;SDS011;7954;51.914;8.420;2023-08-17T08:04:52;5.00;;;4.07;;
15708;SDS011;7954;51.914;8.420;2023-08-17T08:07:19;5.00;;;4.57;;
15708;SDS011;7954;51.914;8.420;2023-08-17T08:09:47;5.50;;;4.67;;
15708;SDS011;7954;51.914;8.420;2023-08-17T08:12:15;5.87;;;4.77;;
15708;SDS011;7954;51.914;8.420;2023-08-17T08:14:43;5.60;;;4.73;;
15708;SDS011;7954;51.914;8.420;2023-08-17T08:17:11;6.10;;;4.50;;
15708;SDS011;7954;51.914;8.420;2023-08-17T08:19:41;4.83;;;4.30;;
15708;SDS011;7954;51.914;8.420;2023-08-17T08:22:09;5.27;;;4.83;;
15708;SDS011;7954;51.914;8.420;2023-08-17T08:24:37;5.20;;;4.00;;
15708;SDS011;7954;51.914;8.420;2023-08-17T08:27:09;4.47;;;3.97;;
15708;SDS011;7954;51.914;8.420;2023-08-17T08:29:37;4.47;;;4.07;;
15708;SDS011;7954;51.914;8.420;2023-08-17T08:32:04;6.80;;;4.87;;
15708;SDS011;7954;51.914;8.420;2023-08-17T08:34:32;5.87;;;4.20;;
15708;SDS011;7954;51.914;8.420;2023-08-17T08:37:03;4.70;;;4.13;;
15708;SDS011;7954;51.914;8.420;2023-08-17T08:39:31;4.33;;;4.00;;
15708;SDS011;7954;51.914;8.420;2023-08-17T08:41:59;4.93;;;4.43;;
15708;SDS011;7954;51.914;8.420;2023-08-17T08:44:27;4.83;;;4.33;;
15708;SDS011;7954;51.914;8.420;2023-08-17T08:46:54;4.87;;;4.10;;
15708;SDS011;7954;51.914;8.420;2023-08-17T08:49:24;5.30;;;4.80;;
15708;SDS011;7954;51.914;8.420;2023-08-17T08:51:52;5.23;;;4.83;;
15708;SDS011;7954;51.914;8.420;2023-08-17T08:54:27;4.63;;;4.23;;
15708;SDS011;7954;51.914;8.420;2023-08-17T08:56:58;6.20;;;4.37;;
15708;SDS011;7954;51.914;8.420;2023-08-17T08:59:27;5.67;;;4.93;;
15708;SDS011;7954;51.914;8.420;2023-08-17T09:01:56;5.33;;;4.60;;
15708;SDS011;7954;51.914;8.420;2023-08-17T09:04:25;5.00;;;4.10;;
15708;SDS011;7954;51.914;8.420;2023-08-17T09:06:52;4.60;;;4.20;;
15708;SDS011;7954;51.914;8.420;2023-08-17T09:09:21;4.30;;;4.00;;
15708;SDS011;7954;51.914;8.420;2023-08-17T09:11:56;5.00;;;4.43;;
15708;SDS011;7954;51.914;8.420;2023-08-17T09:14:24;5.27;;;4.20;;
15708;SDS011;7954;51.914;8.420;2023-08-17T09:16:53;4.47;;;4.07;;
15708;SDS011;7954;51.914;8.420;2023-08-17T09:19:20;4.90;;;4.50;;
15708;SDS011;7954;51.914;8.420;2023-08-17T09:21:48;6.00;;;4.63;;
15708;SDS011;7954;51.914;8.420;2023-08-17T09:24:17;6.43;;;4.80;;
15708;SDS011;7954;51.914;8.420;2023-08-17T09:26:45;4.53;;;4.13;;
15708;SDS011;7954;51.914;8.420;2023-08-17T09:29:17;4.17;;;3.87;;
15708;SDS011;7954;51.914;8.420;2023-08-17T09:31:45;4.73;;;4.33;;
15708;SDS011;7954;51.914;8.420;2023-08-17T09:34:14;4.17;;;3.83;;
15708;SDS011;7954;51.914;8.420;2023-08-17T09:36:42;4.57;;;4.13;;
15708;SDS011;7954;51.914;8.420;2023-08-17T09:39:10;5.60;;;5.03;;
15708;SDS011;7954;51.914;8.420;2023-08-17T09:41:40;4.40;;;4.00;;
15708;SDS011;7954;51.914;8.420;2023-08-17T09:44:09;5.03;;;4.63;;
15708;SDS011;7954;51.914;8.420;2023-08-17T09:46:40;4.97;;;4.57;;
15708;SDS011;7954;51.914;8.420;2023-08-17T09:49:09;4.93;;;4.33;;
15708;SDS011;7954;51.914;8.420;2023-08-17T09:51:37;4.57;;;4.17;;
15708;SDS011;7954;51.914;8.420;2023-08-17T09:54:09;4.10;;;3.80;;
15708;SDS011;7954;51.914;8.420;2023-08-17T09:56:44;3.93;;;3.63;;
15708;SDS011;7954;51.914;8.420;2023-08-17T09:59:12;5.33;;;4.40;;
15708;SDS011;7954;51.914;8.420;2023-08-17T10:01:42;4.37;;;3.97;;
15708;SDS011;7954;51.914;8.420;2023-08-17T10:04:11;3.87;;;3.57;;
15708;SDS011;7954;51.914;8.420;2023-08-17T10:06:40;4.67;;;3.87;;
15708;SDS011;7954;51.914;8.420;2023-08-17T10:09:09;4.10;;;3.33;;
15708;SDS011;7954;51.914;8.420;2023-08-17T10:11:37;4.17;;;3.87;;
15708;SDS011;7954;51.914;8.420;2023-08-17T10:14:09;3.77;;;3.40;;
15708;SDS011;7954;51.914;8.420;2023-08-17T10:16:44;3.87;;;3.57;;
15708;SDS011;7954;51.914;8.420;2023-08-17T10:19:13;4.50;;;4.10;;
15708;SDS011;7954;51.914;8.420;2023-08-17T10:21:47;4.10;;;3.73;;
15708;SDS011;7954;51.914;8.420;2023-08-17T10:24:16;4.87;;;4.23;;
15708;SDS011;7954;51.914;8.420;2023-08-17T10:26:44;4.77;;;4.37;;
15708;SDS011;7954;51.914;8.420;2023-08-17T10:29:12;4.97;;;4.30;;
15708;SDS011;7954;51.914;8.420;2023-08-17T10:31:44;4.90;;;4.50;;
15708;SDS011;7954;51.914;8.420;2023-08-17T10:34:13;4.80;;;4.40;;
15708;SDS011;7954;51.914;8.420;2023-08-17T10:36:41;5.43;;;4.33;;
15708;SDS011;7954;51.914;8.420;2023-08-17T10:39:23;4.73;;;4.33;;
15708;SDS011;7954;51.914;8.420;2023-08-17T10:41:55;4.43;;;4.03;;
15708;SDS011;7954;51.914;8.420;2023-08-17T10:44:37;4.90;;;4.40;;
15708;SDS011;7954;51.914;8.420;2023-08-17T10:47:19;4.50;;;4.10;;
15708;SDS011;7954;51.914;8.420;2023-08-17T10:49:48;4.73;;;4.33;;
15708;SDS011;7954;51.914;8.420;2023-08-17T10:52:24;5.13;;;4.67;;
15708;SDS011;7954;51.914;8.420;2023-08-17T10:54:52;5.03;;;4.60;;
15708;SDS011;7954;51.914;8.420;2023-08-17T10:57:33;4.60;;;4.20;;
15708;SDS011;7954;51.914;8.420;2023-08-17T11:00:05;4.70;;;4.33;;
15708;SDS011;7954;51.914;8.420;2023-08-17T11:02:35;4.67;;;4.27;;
15708;SDS011;7954;51.914;8.420;2023-08-17T11:05:05;5.40;;;4.40;;
15708;SDS011;7954;51.914;8.420;2023-08-17T11:07:40;4.60;;;4.20;;
15708;SDS011;7954;51.914;8.420;2023-08-17T11:10:11;5.17;;;4.67;;
15708;SDS011;7954;51.914;8.420;2023-08-17T11:12:41;4.67;;;4.30;;
15708;SDS011;7954;51.914;8.420;2023-08-17T11:15:09;4.70;;;4.30;;
15708;SDS011;7954;51.914;8.420;2023-08-17T11:17:38;5.30;;;4.80;;
15708;SDS011;7954;51.914;8.420;2023-08-17T11:20:06;5.40;;;4.90;;
15708;SDS011;7954;51.914;8.420;2023-08-17T11:22:40;5.03;;;4.47;;
15708;SDS011;7954;51.914;8.420;2023-08-17T11:25:08;5.30;;;4.70;;
15708;SDS011;7954;51.914;8.420;2023-08-17T11:27:36;6.83;;;5.00;;
15708;SDS011;7954;51.914;8.420;2023-08-17T11:30:05;4.77;;;4.37;;
15708;SDS011;7954;51.914;8.420;2023-08-17T11:32:33;5.23;;;4.50;;
15708;SDS011;7954;51.914;8.420;2023-08-17T11:35:03;5.23;;;4.73;;
15708;SDS011;7954;51.914;8.420;2023-08-17T11:37:30;4.60;;;4.20;;
15708;SDS011;7954;51.914;8.420;2023-08-17T11:39:59;4.60;;;4.20;;
15708;SDS011;7954;51.914;8.420;2023-08-17T11:42:27;4.63;;;4.23;;
15708;SDS011;7954;51.914;8.420;2023-08-17T11:44:56;4.13;;;3.83;;
15708;SDS011;7954;51.914;8.420;2023-08-17T11:47:24;4.80;;;4.30;;
15708;SDS011;7954;51.914;8.420;2023-08-17T11:49:58;4.43;;;4.03;;
15708;SDS011;7954;51.914;8.420;2023-08-17T11:52:47;4.40;;;4.00;;
15708;SDS011;7954;51.914;8.420;2023-08-17T11:55:15;3.93;;;3.63;;
15708;SDS011;7954;51.914;8.420;2023-08-17T11:57:44;4.20;;;3.80;;
15708;SDS011;7954;51.914;8.420;2023-08-17T12:00:16;3.90;;;3.50;;
15708;SDS011;7954;51.914;8.420;2023-08-17T12:02:46;3.97;;;3.60;;
15708;SDS011;7954;51.914;8.420;2023-08-17T12:05:18;4.13;;;3.83;;
15708;SDS011;7954;51.914;8.420;2023-08-17T12:07:47;3.53;;;3.23;;
15708;SDS011;7954;51.914;8.420;2023-08-17T12:10:17;4.27;;;3.10;;
15708;SDS011;7954;51.914;8.420;2023-08-17T12:12:46;3.00;;;2.70;;
15708;SDS011;7954;51.914;8.420;2023-08-17T12:15:15;3.07;;;2.87;;
15708;SDS011;7954;51.914;8.420;2023-08-17T12:17:44;2.63;;;2.43;;
15708;SDS011;7954;51.914;8.420;2023-08-17T12:20:16;2.50;;;2.30;;
15708;SDS011;7954;51.914;8.420;2023-08-17T12:22:45;2.70;;;2.50;;
15708;SDS011;7954;51.914;8.420;2023-08-17T12:25:14;3.37;;;3.07;;
15708;SDS011;7954;51.914;8.420;2023-08-17T12:27:42;2.67;;;2.47;;
15708;SDS011;7954;51.914;8.420;2023-08-17T12:30:14;3.50;;;2.57;;
15708;SDS011;7954;51.914;8.420;2023-08-17T12:32:51;3.13;;;2.87;;
15708;SDS011;7954;51.914;8.420;2023-08-17T12:35:21;3.10;;;2.90;;
15708;SDS011;7954;51.914;8.420;2023-08-17T12:37:51;3.10;;;2.80;;
15708;SDS011;7954;51.914;8.420;2023-08-17T12:40:20;2.97;;;2.77;;
15708;SDS011;7954;51.914;8.420;2023-08-17T12:42:48;3.37;;;3.10;;
15708;SDS011;7954;51.914;8.420;2023-08-17T12:45:16;3.67;;;3.00;;
15708;SDS011;7954;51.914;8.420;2023-08-17T12:47:44;3.30;;;3.10;;
15708;SDS011;7954;51.914;8.420;2023-08-17T12:50:12;3.50;;;3.17;;
15708;SDS011;7954;51.914;8.420;2023-08-17T12:52:40;3.10;;;2.90;;
15708;SDS011;7954;51.914;8.420;2023-08-17T12:55:12;3.77;;;3.47;;
15708;SDS011;7954;51.914;8.420;2023-08-17T12:57:42;3.70;;;3.40;;
15708;SDS011;7954;51.914;8.420;2023-08-17T13:00:10;3.90;;;3.53;;
15708;SDS011;7954;51.914;8.420;2023-08-17T13:02:38;3.80;;;3.27;;
15708;SDS011;7954;51.914;8.420;2023-08-17T13:05:06;3.83;;;3.53;;
15708;SDS011;7954;51.914;8.420;2023-08-17T13:07:34;3.57;;;3.27;;
15708;SDS011;7954;51.914;8.420;2023-08-17T13:10:02;4.60;;;4.20;;
15708;SDS011;7954;51.914;8.420;2023-08-17T13:12:30;4.30;;;3.80;;
15708;SDS011;7954;51.914;8.420;2023-08-17T13:14:59;3.40;;;3.10;;
15708;SDS011;7954;51.914;8.420;2023-08-17T13:17:26;3.97;;;3.57;;
15708;SDS011;7954;51.914;8.420;2023-08-17T13:19:54;3.43;;;3.13;;
15708;SDS011;7954;51.914;8.420;2023-08-17T13:22:22;3.47;;;3.17;;
15708;SDS011;7954;51.914;8.420;2023-08-17T13:24:50;3.90;;;3.60;;
15708;SDS011;7954;51.914;8.420;2023-08-17T13:27:18;3.63;;;3.33;;
15708;SDS011;7954;51.914;8.420;2023-08-17T13:29:45;3.67;;;3.37;;
15708;SDS011;7954;51.914;8.420;2023-08-17T13:32:15;3.80;;;3.50;;
15708;SDS011;7954;51.914;8.420;2023-08-17T13:34:43;3.73;;;3.43;;
15708;SDS011;7954;51.914;8.420;2023-08-17T13:37:10;3.40;;;3.10;;
15708;SDS011;7954;51.914;8.420;2023-08-17T13:39:39;4.30;;;3.20;;
15708;SDS011;7954;51.914;8.420;2023-08-17T13:42:06;3.73;;;3.33;;
15708;SDS011;7954;51.914;8.420;2023-08-17T13:44:34;4.13;;;3.30;;
15708;SDS011;7954;51.914;8.420;2023-08-17T13:47:02;3.70;;;3.40;;
15708;SDS011;7954;51.914;8.420;2023-08-17T13:49:31;3.87;;;3.13;;
15708;SDS011;7954;51.914;8.420;2023-08-17T13:51:59;3.10;;;2.80;;
15708;SDS011;7954;51.914;8.420;2023-08-17T13:54:27;3.40;;;2.87;;
15708;SDS011;7954;51.914;8.420;2023-08-17T13:56:55;3.57;;;3.27;;
15708;SDS011;7954;51.914;8.420;2023-08-17T13:59:23;3.67;;;3.37;;
15708;SDS011;7954;51.914;8.420;2023-08-17T14:01:51;3.70;;;3.40;;
15708;SDS011;7954;51.914;8.420;2023-08-17T14:04:19;4.17;;;2.90;;
15708;SDS011;7954;51.914;8.420;2023-08-17T14:06:48;3.23;;;2.70;;
15708;SDS011;7954;51.914;8.420;2023-08-17T14:09:17;2.93;;;2.70;;
15708;SDS011;7954;51.914;8.420;2023-08-17T14:11:45;2.60;;;2.40;;
15708;SDS011;7954;51.914;8.420;2023-08-17T14:14:13;3.37;;;3.07;;
15708;SDS011;7954;51.914;8.420;2023-08-17T14:16:41;4.17;;;3.20;;
15708;SDS011;7954;51.914;8.420;2023-08-17T14:19:09;3.03;;;2.73;;
15708;SDS011;7954;51.914;8.420;2023-08-17T14:21:37;3.77;;;3.30;;
15708;SDS011;7954;51.914;8.420;2023-08-17T14:24:07;3.90;;;3.40;;
15708;SDS011;7954;51.914;8.420;2023-08-17T14:26:35;3.27;;;2.97;;
15708;SDS011;7954;51.914;8.420;2023-08-17T14:29:02;5.93;;;3.20;;
15708;SDS011;7954;51.914;8.420;2023-08-17T14:31:30;3.70;;;3.40;;
15708;SDS011;7954;51.914;8.420;2023-08-17T14:33:58;3.70;;;3.40;;
15708;SDS011;7954;51.914;8.420;2023-08-17T14:36:31;4.73;;;3.60;;
15708;SDS011;7954;51.914;8.420;2023-08-17T14:38:59;3.87;;;3.47;;
15708;SDS011;7954;51.914;8.420;2023-08-17T14:41:29;4.17;;;3.53;;
15708;SDS011;7954;51.914;8.420;2023-08-17T14:43:59;5.70;;;3.90;;
15708;SDS011;7954;51.914;8.420;2023-08-17T14:46:28;4.13;;;3.73;;
15708;SDS011;7954;51.914;8.420;2023-08-17T14:48:56;4.50;;;4.10;;
15708;SDS011;7954;51.914;8.420;2023-08-17T14:51:25;3.83;;;3.53;;
15708;SDS011;7954;51.914;8.420;2023-08-17T14:53:56;3.63;;;3.33;;
15708;SDS011;7954;51.914;8.420;2023-08-17T14:56:24;4.53;;;3.77;;
15708;SDS011;7954;51.914;8.420;2023-08-17T14:58:53;3.87;;;3.50;;
15708;SDS011;7954;51.914;8.420;2023-08-17T15:01:21;5.47;;;3.97;;
15708;SDS011;7954;51.914;8.420;2023-08-17T15:03:50;4.10;;;3.70;;
15708;SDS011;7954;51.914;8.420;2023-08-17T15:06:18;3.90;;;3.50;;
15708;SDS011;7954;51.914;8.420;2023-08-17T15:09:00;3.60;;;3.30;;
15708;SDS011;7954;51.914;8.420;2023-08-17T15:11:29;4.17;;;3.77;;